sensor_id;sensor_type;location;lat;lon;timestamp;P1;durP1;ratioP1;P2;durP2;ratioP2
15603;SDS011;7902;49.042;9.092;2023-05-08T00:00:27;28.73;;;13.00;;
15603;SDS011;7902;49.042;9.092;2023-05-08T00:02:53;26.27;;;12.07;;
15603;SDS011;7902;49.042;9.092;2023-05-08T00:05:19;33.50;;;17.47;;
15603;SDS011;7902;49.042;9.092;2023-05-08T00:07:45;35.10;;;20.00;;
15603;SDS011;7902;49.042;9.092;2023-05-08T00:10:11;50.00;;;27.67;;
15603;SDS011;7902;49.042;9.092;2023-05-08T00:12:37;33.77;;;17.00;;
15603;SDS011;7902;49.042;9.092;2023-05-08T00:15:03;25.13;;;12.87;;
15603;SDS011;7902;49.042;9.092;2023-05-08T00:17:30;19.90;;;9.90;;
15603;SDS011;7902;49.042;9.092;2023-05-08T00:19:56;26.47;;;11.73;;
15603;SDS011;7902;49.042;9.092;2023-05-08T00:22:22;24.60;;;12.23;;
15603;SDS011;7902;49.042;9.092;2023-05-08T00:24:48;21.43;;;11.03;;
15603;SDS011;7902;49.042;9.092;2023-05-08T00:27:14;22.33;;;11.00;;
15603;SDS011;7902;49.042;9.092;2023-05-08T00:29:40;26.00;;;12.80;;
15603;SDS011;7902;49.042;9.092;2023-05-08T00:32:06;32.40;;;11.97;;
15603;SDS011;7902;49.042;9.092;2023-05-08T00:34:32;23.90;;;10.97;;
15603;SDS011;7902;49.042;9.092;2023-05-08T00:36:58;23.07;;;9.63;;
15603;SDS011;7902;49.042;9.092;2023-05-08T00:39:25;20.13;;;8.50;;
15603;SDS011;7902;49.042;9.092;2023-05-08T00:41:50;21.63;;;9.50;;
15603;SDS011;7902;49.042;9.092;2023-05-08T00:44:16;24.90;;;9.60;;
15603;SDS011;7902;49.042;9.092;2023-05-08T00:46:43;18.00;;;8.10;;
15603;SDS011;7902;49.042;9.092;2023-05-08T00:49:09;20.60;;;7.20;;
15603;SDS011;7902;49.042;9.092;2023-05-08T00:51:38;18.17;;;7.80;;
15603;SDS011;7902;49.042;9.092;2023-05-08T00:54:08;21.33;;;7.67;;
15603;SDS011;7902;49.042;9.092;2023-05-08T00:56:36;17.17;;;7.20;;
15603;SDS011;7902;49.042;9.092;2023-05-08T00:59:10;24.97;;;8.57;;
15603;SDS011;7902;49.042;9.092;2023-05-08T01:01:37;19.10;;;6.70;;
15603;SDS011;7902;49.042;9.092;2023-05-08T01:04:05;17.10;;;6.23;;
15603;SDS011;7902;49.042;9.092;2023-05-08T01:06:31;16.47;;;6.77;;
15603;SDS011;7902;49.042;9.092;2023-05-08T01:08:59;16.70;;;5.90;;
15603;SDS011;7902;49.042;9.092;2023-05-08T01:21:56;21.80;;;11.10;;
15603;SDS011;7902;49.042;9.092;2023-05-08T01:24:30;21.77;;;10.93;;
15603;SDS011;7902;49.042;9.092;2023-05-08T01:27:12;31.03;;;12.43;;
15603;SDS011;7902;49.042;9.092;2023-05-08T01:32:42;25.63;;;13.17;;
15603;SDS011;7902;49.042;9.092;2023-05-08T01:35:20;30.27;;;14.67;;
15603;SDS011;7902;49.042;9.092;2023-05-08T01:37:58;36.20;;;14.10;;
15603;SDS011;7902;49.042;9.092;2023-05-08T01:46:24;35.50;;;15.57;;
15603;SDS011;7902;49.042;9.092;2023-05-08T01:49:07;33.10;;;16.23;;
15603;SDS011;7902;49.042;9.092;2023-05-08T01:52:02;54.40;;;14.57;;
15603;SDS011;7902;49.042;9.092;2023-05-08T01:54:38;30.13;;;14.83;;
15603;SDS011;7902;49.042;9.092;2023-05-08T01:57:09;39.23;;;17.93;;
15603;SDS011;7902;49.042;9.092;2023-05-08T01:59:37;33.47;;;17.43;;
15603;SDS011;7902;49.042;9.092;2023-05-08T02:02:05;40.37;;;16.93;;
15603;SDS011;7902;49.042;9.092;2023-05-08T02:04:34;34.23;;;16.90;;
15603;SDS011;7902;49.042;9.092;2023-05-08T02:07:00;32.73;;;17.10;;
15603;SDS011;7902;49.042;9.092;2023-05-08T02:09:28;29.70;;;14.80;;
15603;SDS011;7902;49.042;9.092;2023-05-08T02:11:56;32.83;;;16.87;;
15603;SDS011;7902;49.042;9.092;2023-05-08T02:14:25;35.37;;;15.20;;
15603;SDS011;7902;49.042;9.092;2023-05-08T02:16:53;27.23;;;14.10;;
15603;SDS011;7902;49.042;9.092;2023-05-08T02:19:22;26.77;;;13.80;;
15603;SDS011;7902;49.042;9.092;2023-05-08T02:21:51;32.13;;;14.53;;
15603;SDS011;7902;49.042;9.092;2023-05-08T02:24:19;26.30;;;13.13;;
15603;SDS011;7902;49.042;9.092;2023-05-08T02:26:46;28.30;;;14.07;;
15603;SDS011;7902;49.042;9.092;2023-05-08T02:29:14;32.33;;;15.03;;
15603;SDS011;7902;49.042;9.092;2023-05-08T02:31:41;29.13;;;14.63;;
15603;SDS011;7902;49.042;9.092;2023-05-08T02:34:09;33.10;;;14.70;;
15603;SDS011;7902;49.042;9.092;2023-05-08T02:36:36;29.87;;;14.40;;
15603;SDS011;7902;49.042;9.092;2023-05-08T02:39:03;26.10;;;13.80;;
15603;SDS011;7902;49.042;9.092;2023-05-08T02:41:32;36.63;;;16.13;;
15603;SDS011;7902;49.042;9.092;2023-05-08T02:44:01;30.53;;;14.10;;
15603;SDS011;7902;49.042;9.092;2023-05-08T02:46:43;32.70;;;16.50;;
15603;SDS011;7902;49.042;9.092;2023-05-08T02:49:31;27.37;;;14.23;;
15603;SDS011;7902;49.042;9.092;2023-05-08T02:52:08;29.97;;;16.40;;
15603;SDS011;7902;49.042;9.092;2023-05-08T02:54:52;29.83;;;15.40;;
15603;SDS011;7902;49.042;9.092;2023-05-08T02:57:26;33.40;;;16.03;;
15603;SDS011;7902;49.042;9.092;2023-05-08T02:59:59;31.20;;;15.97;;
15603;SDS011;7902;49.042;9.092;2023-05-08T03:02:40;31.20;;;16.60;;
15603;SDS011;7902;49.042;9.092;2023-05-08T03:05:19;25.73;;;14.40;;
15603;SDS011;7902;49.042;9.092;2023-05-08T03:07:54;27.33;;;14.60;;
15603;SDS011;7902;49.042;9.092;2023-05-08T03:10:28;30.10;;;15.77;;
15603;SDS011;7902;49.042;9.092;2023-05-08T03:12:58;28.40;;;14.43;;
15603;SDS011;7902;49.042;9.092;2023-05-08T03:15:32;28.73;;;15.57;;
15603;SDS011;7902;49.042;9.092;2023-05-08T03:18:02;32.87;;;17.57;;
15603;SDS011;7902;49.042;9.092;2023-05-08T03:20:32;31.20;;;16.30;;
15603;SDS011;7902;49.042;9.092;2023-05-08T03:23:03;31.70;;;16.03;;
15603;SDS011;7902;49.042;9.092;2023-05-08T03:25:30;34.40;;;16.57;;
15603;SDS011;7902;49.042;9.092;2023-05-08T03:27:59;36.50;;;16.93;;
15603;SDS011;7902;49.042;9.092;2023-05-08T03:30:29;31.97;;;16.90;;
15603;SDS011;7902;49.042;9.092;2023-05-08T03:32:57;32.60;;;15.27;;
15603;SDS011;7902;49.042;9.092;2023-05-08T03:35:24;29.67;;;14.83;;
15603;SDS011;7902;49.042;9.092;2023-05-08T03:37:52;35.50;;;15.33;;
15603;SDS011;7902;49.042;9.092;2023-05-08T03:40:19;26.10;;;13.87;;
15603;SDS011;7902;49.042;9.092;2023-05-08T03:42:45;29.93;;;14.97;;
15603;SDS011;7902;49.042;9.092;2023-05-08T03:45:11;29.37;;;15.27;;
15603;SDS011;7902;49.042;9.092;2023-05-08T03:47:38;37.17;;;15.33;;
15603;SDS011;7902;49.042;9.092;2023-05-08T03:50:05;32.87;;;17.17;;
15603;SDS011;7902;49.042;9.092;2023-05-08T03:52:33;30.10;;;16.47;;
15603;SDS011;7902;49.042;9.092;2023-05-08T03:54:59;32.97;;;16.00;;
15603;SDS011;7902;49.042;9.092;2023-05-08T03:57:26;47.00;;;16.67;;
15603;SDS011;7902;49.042;9.092;2023-05-08T04:00:16;33.93;;;17.73;;
15603;SDS011;7902;49.042;9.092;2023-05-08T04:06:29;37.03;;;18.83;;
15603;SDS011;7902;49.042;9.092;2023-05-08T04:08:54;35.27;;;18.87;;
15603;SDS011;7902;49.042;9.092;2023-05-08T04:11:31;46.73;;;19.60;;
15603;SDS011;7902;49.042;9.092;2023-05-08T04:14:26;34.53;;;17.57;;
15603;SDS011;7902;49.042;9.092;2023-05-08T04:16:55;37.73;;;18.43;;
15603;SDS011;7902;49.042;9.092;2023-05-08T04:19:27;35.50;;;17.10;;
15603;SDS011;7902;49.042;9.092;2023-05-08T04:21:58;31.00;;;14.40;;
15603;SDS011;7902;49.042;9.092;2023-05-08T04:24:29;33.33;;;17.23;;
15603;SDS011;7902;49.042;9.092;2023-05-08T04:26:58;31.07;;;16.53;;
15603;SDS011;7902;49.042;9.092;2023-05-08T04:29:25;31.27;;;16.30;;
15603;SDS011;7902;49.042;9.092;2023-05-08T04:31:51;32.03;;;15.70;;
15603;SDS011;7902;49.042;9.092;2023-05-08T04:34:18;32.80;;;15.50;;
15603;SDS011;7902;49.042;9.092;2023-05-08T04:36:44;28.00;;;15.10;;
15603;SDS011;7902;49.042;9.092;2023-05-08T04:39:10;27.47;;;15.60;;
15603;SDS011;7902;49.042;9.092;2023-05-08T04:41:36;25.07;;;14.13;;
15603;SDS011;7902;49.042;9.092;2023-05-08T04:44:02;26.33;;;13.90;;
15603;SDS011;7902;49.042;9.092;2023-05-08T04:46:28;26.67;;;13.97;;
15603;SDS011;7902;49.042;9.092;2023-05-08T04:48:54;29.50;;;15.90;;
15603;SDS011;7902;49.042;9.092;2023-05-08T04:51:20;28.33;;;13.63;;
15603;SDS011;7902;49.042;9.092;2023-05-08T04:53:46;39.03;;;15.87;;
15603;SDS011;7902;49.042;9.092;2023-05-08T04:56:12;28.70;;;15.13;;
15603;SDS011;7902;49.042;9.092;2023-05-08T04:58:38;33.60;;;16.80;;
15603;SDS011;7902;49.042;9.092;2023-05-08T05:01:04;28.27;;;15.80;;
15603;SDS011;7902;49.042;9.092;2023-05-08T05:03:30;41.57;;;18.10;;
15603;SDS011;7902;49.042;9.092;2023-05-08T05:05:59;37.20;;;17.50;;
15603;SDS011;7902;49.042;9.092;2023-05-08T05:08:25;36.40;;;17.13;;
15603;SDS011;7902;49.042;9.092;2023-05-08T05:10:51;25.50;;;14.33;;
15603;SDS011;7902;49.042;9.092;2023-05-08T05:13:17;26.93;;;14.63;;
15603;SDS011;7902;49.042;9.092;2023-05-08T05:15:44;24.10;;;14.40;;
15603;SDS011;7902;49.042;9.092;2023-05-08T05:18:10;25.07;;;13.40;;
15603;SDS011;7902;49.042;9.092;2023-05-08T05:20:36;21.13;;;12.40;;
15603;SDS011;7902;49.042;9.092;2023-05-08T05:23:02;29.37;;;13.17;;
15603;SDS011;7902;49.042;9.092;2023-05-08T05:25:29;21.10;;;10.90;;
15603;SDS011;7902;49.042;9.092;2023-05-08T05:27:55;26.00;;;11.27;;
15603;SDS011;7902;49.042;9.092;2023-05-08T05:30:21;21.13;;;10.63;;
15603;SDS011;7902;49.042;9.092;2023-05-08T05:32:47;19.00;;;9.17;;
15603;SDS011;7902;49.042;9.092;2023-05-08T05:35:13;20.30;;;9.67;;
15603;SDS011;7902;49.042;9.092;2023-05-08T05:37:39;27.07;;;9.63;;
15603;SDS011;7902;49.042;9.092;2023-05-08T05:40:05;20.03;;;9.63;;
15603;SDS011;7902;49.042;9.092;2023-05-08T05:42:32;27.13;;;10.13;;
15603;SDS011;7902;49.042;9.092;2023-05-08T05:44:58;20.33;;;10.70;;
15603;SDS011;7902;49.042;9.092;2023-05-08T05:47:23;22.97;;;9.30;;
15603;SDS011;7902;49.042;9.092;2023-05-08T05:49:49;24.00;;;10.33;;
15603;SDS011;7902;49.042;9.092;2023-05-08T05:52:15;21.17;;;9.27;;
15603;SDS011;7902;49.042;9.092;2023-05-08T05:54:41;20.40;;;9.30;;
15603;SDS011;7902;49.042;9.092;2023-05-08T05:57:07;21.70;;;9.20;;
15603;SDS011;7902;49.042;9.092;2023-05-08T05:59:33;19.50;;;9.00;;
15603;SDS011;7902;49.042;9.092;2023-05-08T06:01:59;19.93;;;10.10;;
15603;SDS011;7902;49.042;9.092;2023-05-08T06:04:25;23.03;;;10.00;;
15603;SDS011;7902;49.042;9.092;2023-05-08T06:06:51;15.97;;;8.23;;
15603;SDS011;7902;49.042;9.092;2023-05-08T06:09:17;24.53;;;9.30;;
15603;SDS011;7902;49.042;9.092;2023-05-08T06:11:42;18.13;;;8.97;;
15603;SDS011;7902;49.042;9.092;2023-05-08T06:14:08;20.53;;;10.10;;
15603;SDS011;7902;49.042;9.092;2023-05-08T06:16:35;19.70;;;10.10;;
15603;SDS011;7902;49.042;9.092;2023-05-08T06:19:01;18.90;;;8.67;;
15603;SDS011;7902;49.042;9.092;2023-05-08T06:21:27;25.13;;;9.00;;
15603;SDS011;7902;49.042;9.092;2023-05-08T06:23:53;18.20;;;8.67;;
15603;SDS011;7902;49.042;9.092;2023-05-08T06:26:19;18.60;;;9.23;;
15603;SDS011;7902;49.042;9.092;2023-05-08T06:28:45;17.23;;;8.20;;
15603;SDS011;7902;49.042;9.092;2023-05-08T06:31:11;18.27;;;9.23;;
15603;SDS011;7902;49.042;9.092;2023-05-08T06:33:37;19.73;;;9.40;;
15603;SDS011;7902;49.042;9.092;2023-05-08T06:36:04;22.73;;;10.77;;
15603;SDS011;7902;49.042;9.092;2023-05-08T06:38:30;22.00;;;9.03;;
15603;SDS011;7902;49.042;9.092;2023-05-08T06:40:56;21.30;;;8.60;;
15603;SDS011;7902;49.042;9.092;2023-05-08T06:43:22;20.23;;;8.50;;
15603;SDS011;7902;49.042;9.092;2023-05-08T06:45:48;17.70;;;8.83;;
15603;SDS011;7902;49.042;9.092;2023-05-08T06:48:14;19.00;;;8.37;;
15603;SDS011;7902;49.042;9.092;2023-05-08T06:50:40;22.50;;;9.20;;
15603;SDS011;7902;49.042;9.092;2023-05-08T06:53:07;17.73;;;7.90;;
15603;SDS011;7902;49.042;9.092;2023-05-08T06:55:34;19.07;;;8.80;;
15603;SDS011;7902;49.042;9.092;2023-05-08T06:58:00;18.87;;;8.90;;
15603;SDS011;7902;49.042;9.092;2023-05-08T07:00:26;22.00;;;8.00;;
15603;SDS011;7902;49.042;9.092;2023-05-08T07:02:52;21.83;;;8.57;;
15603;SDS011;7902;49.042;9.092;2023-05-08T07:05:17;20.10;;;8.20;;
15603;SDS011;7902;49.042;9.092;2023-05-08T07:07:44;19.17;;;8.90;;
15603;SDS011;7902;49.042;9.092;2023-05-08T07:10:10;26.10;;;8.47;;
15603;SDS011;7902;49.042;9.092;2023-05-08T07:12:36;35.90;;;10.30;;
15603;SDS011;7902;49.042;9.092;2023-05-08T07:15:02;51.20;;;11.07;;
15603;SDS011;7902;49.042;9.092;2023-05-08T07:17:28;89.37;;;12.33;;
15603;SDS011;7902;49.042;9.092;2023-05-08T07:19:55;27.70;;;9.13;;
15603;SDS011;7902;49.042;9.092;2023-05-08T07:22:21;31.37;;;10.87;;
15603;SDS011;7902;49.042;9.092;2023-05-08T07:24:47;39.73;;;12.30;;
15603;SDS011;7902;49.042;9.092;2023-05-08T07:27:13;22.93;;;10.43;;
15603;SDS011;7902;49.042;9.092;2023-05-08T07:29:39;22.83;;;10.10;;
15603;SDS011;7902;49.042;9.092;2023-05-08T07:32:06;21.37;;;11.13;;
15603;SDS011;7902;49.042;9.092;2023-05-08T07:34:32;21.90;;;11.37;;
15603;SDS011;7902;49.042;9.092;2023-05-08T07:36:59;26.13;;;11.73;;
15603;SDS011;7902;49.042;9.092;2023-05-08T07:39:25;32.03;;;12.50;;
15603;SDS011;7902;49.042;9.092;2023-05-08T07:41:51;23.70;;;10.27;;
15603;SDS011;7902;49.042;9.092;2023-05-08T07:44:17;25.80;;;14.13;;
15603;SDS011;7902;49.042;9.092;2023-05-08T07:46:43;23.80;;;12.83;;
15603;SDS011;7902;49.042;9.092;2023-05-08T07:49:08;22.30;;;10.77;;
15603;SDS011;7902;49.042;9.092;2023-05-08T07:51:34;21.10;;;10.60;;
15603;SDS011;7902;49.042;9.092;2023-05-08T07:54:00;19.80;;;10.03;;
15603;SDS011;7902;49.042;9.092;2023-05-08T07:56:26;25.77;;;10.87;;
15603;SDS011;7902;49.042;9.092;2023-05-08T07:58:52;27.17;;;10.37;;
15603;SDS011;7902;49.042;9.092;2023-05-08T08:01:18;21.13;;;9.90;;
15603;SDS011;7902;49.042;9.092;2023-05-08T08:03:44;19.57;;;10.20;;
15603;SDS011;7902;49.042;9.092;2023-05-08T08:06:10;159.80;;;19.83;;
15603;SDS011;7902;49.042;9.092;2023-05-08T08:08:37;27.93;;;9.90;;
15603;SDS011;7902;49.042;9.092;2023-05-08T08:11:04;24.37;;;9.57;;
15603;SDS011;7902;49.042;9.092;2023-05-08T08:13:30;20.50;;;7.90;;
15603;SDS011;7902;49.042;9.092;2023-05-08T08:15:57;20.53;;;9.70;;
15603;SDS011;7902;49.042;9.092;2023-05-08T08:18:24;24.70;;;10.37;;
15603;SDS011;7902;49.042;9.092;2023-05-08T08:20:50;23.80;;;9.27;;
15603;SDS011;7902;49.042;9.092;2023-05-08T08:23:16;19.70;;;9.00;;
15603;SDS011;7902;49.042;9.092;2023-05-08T08:25:41;22.73;;;9.97;;
15603;SDS011;7902;49.042;9.092;2023-05-08T08:28:07;22.00;;;9.10;;
15603;SDS011;7902;49.042;9.092;2023-05-08T08:30:33;22.90;;;9.33;;
15603;SDS011;7902;49.042;9.092;2023-05-08T08:32:59;20.73;;;9.67;;
15603;SDS011;7902;49.042;9.092;2023-05-08T08:35:31;23.87;;;10.60;;
15603;SDS011;7902;49.042;9.092;2023-05-08T08:37:57;26.00;;;10.10;;
15603;SDS011;7902;49.042;9.092;2023-05-08T08:40:23;168.67;;;21.00;;
15603;SDS011;7902;49.042;9.092;2023-05-08T08:42:49;51.30;;;16.83;;
15603;SDS011;7902;49.042;9.092;2023-05-08T08:45:15;54.70;;;14.60;;
15603;SDS011;7902;49.042;9.092;2023-05-08T08:47:42;31.70;;;10.20;;
15603;SDS011;7902;49.042;9.092;2023-05-08T08:50:09;27.10;;;12.20;;
15603;SDS011;7902;49.042;9.092;2023-05-08T08:52:40;34.60;;;16.30;;
15603;SDS011;7902;49.042;9.092;2023-05-08T08:55:14;33.73;;;10.23;;
15603;SDS011;7902;49.042;9.092;2023-05-08T09:00:37;26.77;;;11.10;;
15603;SDS011;7902;49.042;9.092;2023-05-08T09:03:04;24.17;;;11.57;;
15603;SDS011;7902;49.042;9.092;2023-05-08T09:05:30;27.57;;;10.50;;
15603;SDS011;7902;49.042;9.092;2023-05-08T09:07:57;22.43;;;10.00;;
15603;SDS011;7902;49.042;9.092;2023-05-08T09:10:24;202.77;;;22.10;;
15603;SDS011;7902;49.042;9.092;2023-05-08T09:12:50;60.60;;;15.77;;
15603;SDS011;7902;49.042;9.092;2023-05-08T09:15:16;52.13;;;16.87;;
15603;SDS011;7902;49.042;9.092;2023-05-08T09:17:42;120.70;;;20.87;;
15603;SDS011;7902;49.042;9.092;2023-05-08T09:20:08;32.67;;;14.23;;
15603;SDS011;7902;49.042;9.092;2023-05-08T09:22:36;31.83;;;17.70;;
15603;SDS011;7902;49.042;9.092;2023-05-08T09:25:02;31.93;;;17.93;;
15603;SDS011;7902;49.042;9.092;2023-05-08T09:27:29;29.67;;;14.30;;
15603;SDS011;7902;49.042;9.092;2023-05-08T09:32:36;27.57;;;13.40;;
15603;SDS011;7902;49.042;9.092;2023-05-08T09:35:04;26.33;;;10.53;;
15603;SDS011;7902;49.042;9.092;2023-05-08T09:37:31;24.87;;;9.60;;
15603;SDS011;7902;49.042;9.092;2023-05-08T09:42:43;28.03;;;10.33;;
15603;SDS011;7902;49.042;9.092;2023-05-08T09:45:09;79.13;;;13.27;;
15603;SDS011;7902;49.042;9.092;2023-05-08T09:47:35;35.40;;;10.67;;
15603;SDS011;7902;49.042;9.092;2023-05-08T09:50:09;25.33;;;10.20;;
15603;SDS011;7902;49.042;9.092;2023-05-08T09:52:36;107.33;;;13.47;;
15603;SDS011;7902;49.042;9.092;2023-05-08T09:55:06;27.57;;;11.13;;
15603;SDS011;7902;49.042;9.092;2023-05-08T09:57:35;32.37;;;11.60;;
15603;SDS011;7902;49.042;9.092;2023-05-08T10:02:32;34.37;;;11.17;;
15603;SDS011;7902;49.042;9.092;2023-05-08T10:04:58;23.33;;;11.03;;
15603;SDS011;7902;49.042;9.092;2023-05-08T10:07:28;21.10;;;10.93;;
15603;SDS011;7902;49.042;9.092;2023-05-08T10:09:59;26.40;;;10.27;;
15603;SDS011;7902;49.042;9.092;2023-05-08T10:12:27;21.70;;;10.57;;
15603;SDS011;7902;49.042;9.092;2023-05-08T10:14:53;59.67;;;14.27;;
15603;SDS011;7902;49.042;9.092;2023-05-08T10:17:24;96.03;;;16.90;;
15603;SDS011;7902;49.042;9.092;2023-05-08T10:20:16;35.07;;;11.77;;
15603;SDS011;7902;49.042;9.092;2023-05-08T10:22:44;28.83;;;12.47;;
15603;SDS011;7902;49.042;9.092;2023-05-08T10:25:16;25.23;;;13.47;;
15603;SDS011;7902;49.042;9.092;2023-05-08T10:27:47;30.43;;;12.00;;
15603;SDS011;7902;49.042;9.092;2023-05-08T10:30:26;21.87;;;11.33;;
15603;SDS011;7902;49.042;9.092;2023-05-08T10:32:52;29.93;;;11.60;;
15603;SDS011;7902;49.042;9.092;2023-05-08T10:35:21;32.00;;;11.00;;
15603;SDS011;7902;49.042;9.092;2023-05-08T10:37:47;26.93;;;11.47;;
15603;SDS011;7902;49.042;9.092;2023-05-08T10:40:14;27.00;;;10.90;;
15603;SDS011;7902;49.042;9.092;2023-05-08T10:42:41;21.77;;;10.77;;
15603;SDS011;7902;49.042;9.092;2023-05-08T10:45:08;24.37;;;10.47;;
15603;SDS011;7902;49.042;9.092;2023-05-08T10:47:39;24.63;;;11.47;;
15603;SDS011;7902;49.042;9.092;2023-05-08T10:50:21;21.27;;;10.33;;
15603;SDS011;7902;49.042;9.092;2023-05-08T10:53:15;25.30;;;10.27;;
15603;SDS011;7902;49.042;9.092;2023-05-08T10:55:45;31.33;;;11.30;;
15603;SDS011;7902;49.042;9.092;2023-05-08T10:58:15;21.20;;;10.33;;
15603;SDS011;7902;49.042;9.092;2023-05-08T11:03:31;23.20;;;10.03;;
15603;SDS011;7902;49.042;9.092;2023-05-08T11:06:03;22.03;;;10.10;;
15603;SDS011;7902;49.042;9.092;2023-05-08T11:08:29;23.83;;;9.50;;
15603;SDS011;7902;49.042;9.092;2023-05-08T11:13:32;25.33;;;10.53;;
15603;SDS011;7902;49.042;9.092;2023-05-08T11:15:59;20.67;;;9.03;;
15603;SDS011;7902;49.042;9.092;2023-05-08T11:18:25;21.87;;;9.77;;
15603;SDS011;7902;49.042;9.092;2023-05-08T11:21:05;21.23;;;9.53;;
15603;SDS011;7902;49.042;9.092;2023-05-08T11:23:39;21.10;;;9.60;;
15603;SDS011;7902;49.042;9.092;2023-05-08T11:26:11;21.40;;;8.60;;
15603;SDS011;7902;49.042;9.092;2023-05-08T11:28:39;34.17;;;10.63;;
15603;SDS011;7902;49.042;9.092;2023-05-08T11:31:06;20.50;;;8.43;;
15603;SDS011;7902;49.042;9.092;2023-05-08T11:33:36;20.47;;;8.30;;
15603;SDS011;7902;49.042;9.092;2023-05-08T11:36:15;22.33;;;9.57;;
15603;SDS011;7902;49.042;9.092;2023-05-08T11:38:43;25.03;;;9.90;;
15603;SDS011;7902;49.042;9.092;2023-05-08T11:41:30;21.87;;;9.70;;
15603;SDS011;7902;49.042;9.092;2023-05-08T11:46:34;25.10;;;9.20;;
15603;SDS011;7902;49.042;9.092;2023-05-08T11:49:04;19.30;;;8.87;;
15603;SDS011;7902;49.042;9.092;2023-05-08T11:51:31;21.87;;;8.60;;
15603;SDS011;7902;49.042;9.092;2023-05-08T11:54:00;38.80;;;9.60;;
15603;SDS011;7902;49.042;9.092;2023-05-08T11:56:27;34.17;;;9.17;;
15603;SDS011;7902;49.042;9.092;2023-05-08T11:59:00;26.33;;;9.97;;
15603;SDS011;7902;49.042;9.092;2023-05-08T12:01:27;20.43;;;8.20;;
15603;SDS011;7902;49.042;9.092;2023-05-08T12:04:03;28.60;;;8.80;;
15603;SDS011;7902;49.042;9.092;2023-05-08T12:06:33;25.57;;;7.40;;
15603;SDS011;7902;49.042;9.092;2023-05-08T12:09:02;20.37;;;8.97;;
15603;SDS011;7902;49.042;9.092;2023-05-08T12:11:29;22.20;;;8.30;;
15603;SDS011;7902;49.042;9.092;2023-05-08T12:13:56;21.53;;;7.50;;
15603;SDS011;7902;49.042;9.092;2023-05-08T12:16:22;20.77;;;9.80;;
15603;SDS011;7902;49.042;9.092;2023-05-08T12:18:50;22.87;;;8.70;;
15603;SDS011;7902;49.042;9.092;2023-05-08T12:21:16;21.23;;;9.07;;
15603;SDS011;7902;49.042;9.092;2023-05-08T12:23:43;17.80;;;7.20;;
15603;SDS011;7902;49.042;9.092;2023-05-08T12:26:09;30.43;;;7.40;;
15603;SDS011;7902;49.042;9.092;2023-05-08T12:28:37;19.07;;;7.93;;
15603;SDS011;7902;49.042;9.092;2023-05-08T12:31:03;20.47;;;6.90;;
15603;SDS011;7902;49.042;9.092;2023-05-08T12:33:29;24.73;;;7.23;;
15603;SDS011;7902;49.042;9.092;2023-05-08T12:35:55;20.60;;;8.60;;
15603;SDS011;7902;49.042;9.092;2023-05-08T12:38:25;21.70;;;8.20;;
15603;SDS011;7902;49.042;9.092;2023-05-08T12:40:52;19.10;;;7.37;;
15603;SDS011;7902;49.042;9.092;2023-05-08T12:43:20;22.87;;;7.37;;
15603;SDS011;7902;49.042;9.092;2023-05-08T12:45:46;19.97;;;7.30;;
15603;SDS011;7902;49.042;9.092;2023-05-08T12:48:17;23.77;;;7.23;;
15603;SDS011;7902;49.042;9.092;2023-05-08T12:50:44;21.83;;;7.47;;
15603;SDS011;7902;49.042;9.092;2023-05-08T12:53:17;19.37;;;7.27;;
15603;SDS011;7902;49.042;9.092;2023-05-08T12:55:56;24.03;;;8.00;;
15603;SDS011;7902;49.042;9.092;2023-05-08T12:58:26;18.50;;;7.47;;
15603;SDS011;7902;49.042;9.092;2023-05-08T13:01:03;21.20;;;8.13;;
15603;SDS011;7902;49.042;9.092;2023-05-08T13:03:30;28.50;;;8.63;;
15603;SDS011;7902;49.042;9.092;2023-05-08T13:05:57;38.07;;;9.47;;
15603;SDS011;7902;49.042;9.092;2023-05-08T13:11:00;20.60;;;7.90;;
15603;SDS011;7902;49.042;9.092;2023-05-08T13:13:28;31.43;;;8.43;;
15603;SDS011;7902;49.042;9.092;2023-05-08T13:15:55;27.40;;;8.63;;
15603;SDS011;7902;49.042;9.092;2023-05-08T13:18:25;18.10;;;7.33;;
15603;SDS011;7902;49.042;9.092;2023-05-08T13:20:55;18.97;;;6.77;;
15603;SDS011;7902;49.042;9.092;2023-05-08T13:23:21;18.03;;;6.97;;
15603;SDS011;7902;49.042;9.092;2023-05-08T13:25:48;16.40;;;6.30;;
15603;SDS011;7902;49.042;9.092;2023-05-08T13:28:14;21.77;;;7.20;;
15603;SDS011;7902;49.042;9.092;2023-05-08T13:30:40;24.87;;;7.90;;
15603;SDS011;7902;49.042;9.092;2023-05-08T13:33:06;27.20;;;8.27;;
15603;SDS011;7902;49.042;9.092;2023-05-08T13:35:32;22.03;;;7.37;;
15603;SDS011;7902;49.042;9.092;2023-05-08T13:37:58;28.97;;;9.07;;
15603;SDS011;7902;49.042;9.092;2023-05-08T13:40:24;23.97;;;7.50;;
15603;SDS011;7902;49.042;9.092;2023-05-08T13:42:50;21.50;;;8.10;;
15603;SDS011;7902;49.042;9.092;2023-05-08T13:45:16;23.07;;;7.80;;
15603;SDS011;7902;49.042;9.092;2023-05-08T13:47:46;19.53;;;8.30;;
15603;SDS011;7902;49.042;9.092;2023-05-08T13:50:13;19.67;;;7.67;;
15603;SDS011;7902;49.042;9.092;2023-05-08T13:52:40;21.33;;;7.77;;
15603;SDS011;7902;49.042;9.092;2023-05-08T13:55:08;23.70;;;8.33;;
15603;SDS011;7902;49.042;9.092;2023-05-08T13:57:35;29.70;;;10.60;;
15603;SDS011;7902;49.042;9.092;2023-05-08T14:00:02;42.97;;;11.93;;
15603;SDS011;7902;49.042;9.092;2023-05-08T14:02:29;26.50;;;9.90;;
15603;SDS011;7902;49.042;9.092;2023-05-08T14:04:55;21.87;;;8.73;;
15603;SDS011;7902;49.042;9.092;2023-05-08T14:07:21;22.43;;;8.83;;
15603;SDS011;7902;49.042;9.092;2023-05-08T14:09:47;24.83;;;8.50;;
15603;SDS011;7902;49.042;9.092;2023-05-08T14:12:13;30.83;;;10.33;;
15603;SDS011;7902;49.042;9.092;2023-05-08T14:14:39;26.53;;;7.97;;
15603;SDS011;7902;49.042;9.092;2023-05-08T14:17:05;19.43;;;7.53;;
15603;SDS011;7902;49.042;9.092;2023-05-08T14:19:32;24.50;;;9.00;;
15603;SDS011;7902;49.042;9.092;2023-05-08T14:21:58;23.53;;;8.33;;
15603;SDS011;7902;49.042;9.092;2023-05-08T14:24:24;20.83;;;8.20;;
15603;SDS011;7902;49.042;9.092;2023-05-08T14:26:50;27.23;;;9.70;;
15603;SDS011;7902;49.042;9.092;2023-05-08T14:29:16;22.10;;;9.23;;
15603;SDS011;7902;49.042;9.092;2023-05-08T14:31:43;19.40;;;8.50;;
15603;SDS011;7902;49.042;9.092;2023-05-08T14:34:10;21.47;;;9.60;;
15603;SDS011;7902;49.042;9.092;2023-05-08T14:36:36;20.63;;;9.80;;
15603;SDS011;7902;49.042;9.092;2023-05-08T14:39:02;23.23;;;9.50;;
15603;SDS011;7902;49.042;9.092;2023-05-08T14:41:29;23.00;;;10.00;;
15603;SDS011;7902;49.042;9.092;2023-05-08T14:43:55;21.43;;;9.53;;
15603;SDS011;7902;49.042;9.092;2023-05-08T14:46:22;25.23;;;10.60;;
15603;SDS011;7902;49.042;9.092;2023-05-08T14:48:49;21.87;;;9.73;;
15603;SDS011;7902;49.042;9.092;2023-05-08T14:51:15;27.20;;;11.27;;
15603;SDS011;7902;49.042;9.092;2023-05-08T14:53:44;25.87;;;11.30;;
15603;SDS011;7902;49.042;9.092;2023-05-08T14:56:10;25.07;;;11.60;;
15603;SDS011;7902;49.042;9.092;2023-05-08T14:58:38;22.70;;;10.60;;
15603;SDS011;7902;49.042;9.092;2023-05-08T15:01:04;21.80;;;9.60;;
15603;SDS011;7902;49.042;9.092;2023-05-08T15:03:30;23.20;;;11.50;;
15603;SDS011;7902;49.042;9.092;2023-05-08T15:05:56;27.83;;;10.40;;
15603;SDS011;7902;49.042;9.092;2023-05-08T15:08:22;23.10;;;10.40;;
15603;SDS011;7902;49.042;9.092;2023-05-08T15:10:48;21.50;;;9.47;;
15603;SDS011;7902;49.042;9.092;2023-05-08T15:13:13;27.00;;;10.90;;
15603;SDS011;7902;49.042;9.092;2023-05-08T15:15:39;23.43;;;11.03;;
15603;SDS011;7902;49.042;9.092;2023-05-08T15:18:05;21.73;;;10.33;;
15603;SDS011;7902;49.042;9.092;2023-05-08T15:20:31;21.60;;;10.37;;
15603;SDS011;7902;49.042;9.092;2023-05-08T15:22:57;24.03;;;9.33;;
15603;SDS011;7902;49.042;9.092;2023-05-08T15:25:23;20.93;;;9.60;;
15603;SDS011;7902;49.042;9.092;2023-05-08T15:27:50;20.53;;;8.37;;
15603;SDS011;7902;49.042;9.092;2023-05-08T15:30:18;23.43;;;7.87;;